sensor_id;sensor_type;location;lat;lon;timestamp;pressure;altitude;pressure_sealevel;temperature;humidity
40117;BME280;25829;50.228;18.936;2023-02-18T00:02:34;98210.03;;;7.85;78.26
40117;BME280;25829;50.228;18.936;2023-02-18T00:05:35;98218.91;;;7.84;78.66
40117;BME280;25829;50.228;18.936;2023-02-18T00:08:36;98216.91;;;7.86;78.83
40117;BME280;25829;50.228;18.936;2023-02-18T00:11:37;98210.66;;;7.87;78.81
40117;BME280;25829;50.228;18.936;2023-02-18T00:14:38;98209.63;;;7.88;78.24
40117;BME280;25829;50.228;18.936;2023-02-18T00:17:39;98214.72;;;7.90;78.30
40117;BME280;25829;50.228;18.936;2023-02-18T00:20:40;98210.06;;;7.92;78.23
40117;BME280;25829;50.228;18.936;2023-02-18T00:23:41;98214.31;;;7.93;78.33
40117;BME280;25829;50.228;18.936;2023-02-18T00:26:42;98215.13;;;7.93;78.53
40117;BME280;25829;50.228;18.936;2023-02-18T00:29:43;98248.47;;;7.93;78.54
40117;BME280;25829;50.228;18.936;2023-02-18T00:32:44;98259.78;;;7.93;78.44
40117;BME280;25829;50.228;18.936;2023-02-18T00:35:45;98283.22;;;7.95;78.61
40117;BME280;25829;50.228;18.936;2023-02-18T00:38:51;98307.88;;;7.94;78.65
40117;BME280;25829;50.228;18.936;2023-02-18T00:41:52;98311.91;;;7.90;79.06
40117;BME280;25829;50.228;18.936;2023-02-18T00:44:53;98314.47;;;7.83;78.86
40117;BME280;25829;50.228;18.936;2023-02-18T00:47:55;98328.38;;;7.77;78.85
40117;BME280;25829;50.228;18.936;2023-02-18T00:50:55;98329.91;;;7.71;78.59
40117;BME280;25829;50.228;18.936;2023-02-18T00:53:56;98330.31;;;7.68;78.32
40117;BME280;25829;50.228;18.936;2023-02-18T00:56:58;98329.91;;;7.65;78.84
40117;BME280;25829;50.228;18.936;2023-02-18T00:59:59;98327.66;;;7.62;79.25
40117;BME280;25829;50.228;18.936;2023-02-18T01:03:00;98325.56;;;7.57;78.79
40117;BME280;25829;50.228;18.936;2023-02-18T01:06:02;98331.03;;;7.56;78.95
40117;BME280;25829;50.228;18.936;2023-02-18T01:09:04;98335.66;;;7.54;78.81
40117;BME280;25829;50.228;18.936;2023-02-18T01:12:05;98340.09;;;7.53;78.63
40117;BME280;25829;50.228;18.936;2023-02-18T01:15:14;98341.28;;;7.50;78.90
40117;BME280;25829;50.228;18.936;2023-02-18T01:18:15;98353.16;;;7.46;78.40
40117;BME280;25829;50.228;18.936;2023-02-18T01:21:16;98343.84;;;7.44;78.07
40117;BME280;25829;50.228;18.936;2023-02-18T01:24:17;98357.97;;;7.43;78.10
40117;BME280;25829;50.228;18.936;2023-02-18T01:27:17;98343.41;;;7.40;77.52
40117;BME280;25829;50.228;18.936;2023-02-18T01:30:19;98349.50;;;7.41;77.18
40117;BME280;25829;50.228;18.936;2023-02-18T01:33:20;98351.28;;;7.40;77.12
40117;BME280;25829;50.228;18.936;2023-02-18T01:36:21;98342.44;;;7.41;76.26
40117;BME280;25829;50.228;18.936;2023-02-18T01:39:22;98339.38;;;7.38;76.20
40117;BME280;25829;50.228;18.936;2023-02-18T01:42:43;98350.84;;;7.37;75.75
40117;BME280;25829;50.228;18.936;2023-02-18T01:48:59;98350.56;;;7.25;74.55
40117;BME280;25829;50.228;18.936;2023-02-18T01:52:22;98336.22;;;7.21;73.35
40117;BME280;25829;50.228;18.936;2023-02-18T01:55:23;98351.69;;;7.16;72.91
40117;BME280;25829;50.228;18.936;2023-02-18T01:58:24;98358.94;;;7.14;72.40
40117;BME280;25829;50.228;18.936;2023-02-18T02:01:25;98373.03;;;7.13;71.40
40117;BME280;25829;50.228;18.936;2023-02-18T02:04:26;98358.09;;;7.07;70.41
40117;BME280;25829;50.228;18.936;2023-02-18T02:07:27;98340.09;;;7.03;70.56
40117;BME280;25829;50.228;18.936;2023-02-18T02:10:58;98347.22;;;7.10;70.85
40117;BME280;25829;50.228;18.936;2023-02-18T02:27:58;98344.97;;;6.85;70.10
40117;BME280;25829;50.228;18.936;2023-02-18T02:34:54;98355.25;;;6.87;70.51
40117;BME280;25829;50.228;18.936;2023-02-18T02:38:05;98354.81;;;6.83;70.12
40117;BME280;25829;50.228;18.936;2023-02-18T02:41:20;98358.44;;;6.82;70.38
40117;BME280;25829;50.228;18.936;2023-02-18T02:54:18;98358.81;;;6.64;71.52
40117;BME280;25829;50.228;18.936;2023-02-18T03:04:04;98359.94;;;6.55;70.37
40117;BME280;25829;50.228;18.936;2023-02-18T03:08:21;98374.88;;;6.54;69.88
40117;BME280;25829;50.228;18.936;2023-02-18T03:11:03;98380.91;;;6.55;69.97
40117;BME280;25829;50.228;18.936;2023-02-18T03:17:29;98385.00;;;6.58;70.95
40117;BME280;25829;50.228;18.936;2023-02-18T03:20:35;98394.03;;;6.55;71.38
40117;BME280;25829;50.228;18.936;2023-02-18T03:23:45;98401.88;;;6.55;72.35
40117;BME280;25829;50.228;18.936;2023-02-18T03:26:56;98405.69;;;6.52;72.35
40117;BME280;25829;50.228;18.936;2023-02-18T03:30:06;98410.28;;;6.50;72.49
40117;BME280;25829;50.228;18.936;2023-02-18T03:33:14;98407.66;;;6.50;72.39
40117;BME280;25829;50.228;18.936;2023-02-18T03:36:19;98414.72;;;6.50;72.96
40117;BME280;25829;50.228;18.936;2023-02-18T03:39:22;98412.28;;;6.48;72.96
40117;BME280;25829;50.228;18.936;2023-02-18T03:42:26;98408.56;;;6.43;73.03
40117;BME280;25829;50.228;18.936;2023-02-18T03:45:27;98411.38;;;6.41;73.18
40117;BME280;25829;50.228;18.936;2023-02-18T03:48:28;98413.19;;;6.41;72.59
40117;BME280;25829;50.228;18.936;2023-02-18T03:51:29;98406.06;;;6.35;72.17
40117;BME280;25829;50.228;18.936;2023-02-18T03:54:30;98410.03;;;6.30;71.43
40117;BME280;25829;50.228;18.936;2023-02-18T03:57:31;98413.84;;;6.28;70.12
40117;BME280;25829;50.228;18.936;2023-02-18T04:00:31;98421.03;;;6.26;68.64
40117;BME280;25829;50.228;18.936;2023-02-18T04:03:32;98424.66;;;6.25;66.79
40117;BME280;25829;50.228;18.936;2023-02-18T04:06:33;98441.38;;;6.24;65.83
40117;BME280;25829;50.228;18.936;2023-02-18T04:09:34;98432.72;;;6.23;65.74
40117;BME280;25829;50.228;18.936;2023-02-18T04:12:34;98437.97;;;6.23;64.56
40117;BME280;25829;50.228;18.936;2023-02-18T04:15:35;98447.78;;;6.21;64.79
40117;BME280;25829;50.228;18.936;2023-02-18T04:18:36;98450.31;;;6.15;64.13
40117;BME280;25829;50.228;18.936;2023-02-18T04:21:37;98451.47;;;6.12;63.44
40117;BME280;25829;50.228;18.936;2023-02-18T04:24:38;98450.22;;;6.08;63.43
40117;BME280;25829;50.228;18.936;2023-02-18T04:27:38;98454.00;;;6.05;62.67
40117;BME280;25829;50.228;18.936;2023-02-18T04:30:40;98458.97;;;6.00;62.04
40117;BME280;25829;50.228;18.936;2023-02-18T04:33:40;98461.94;;;5.97;62.09
40117;BME280;25829;50.228;18.936;2023-02-18T04:36:41;98453.63;;;5.94;61.08
40117;BME280;25829;50.228;18.936;2023-02-18T04:39:42;98446.13;;;5.91;61.54
40117;BME280;25829;50.228;18.936;2023-02-18T04:42:43;98450.88;;;5.87;61.08
40117;BME280;25829;50.228;18.936;2023-02-18T04:45:43;98454.66;;;5.84;61.33
40117;BME280;25829;50.228;18.936;2023-02-18T04:48:44;98455.19;;;5.80;61.37
40117;BME280;25829;50.228;18.936;2023-02-18T04:51:45;98456.19;;;5.79;61.96
40117;BME280;25829;50.228;18.936;2023-02-18T04:54:46;98463.38;;;5.77;60.92
40117;BME280;25829;50.228;18.936;2023-02-18T04:57:46;98470.22;;;5.63;60.51
40117;BME280;25829;50.228;18.936;2023-02-18T05:00:47;98466.50;;;5.57;59.97
40117;BME280;25829;50.228;18.936;2023-02-18T05:03:48;98467.47;;;5.56;59.43
40117;BME280;25829;50.228;18.936;2023-02-18T05:06:49;98474.69;;;5.54;58.85
40117;BME280;25829;50.228;18.936;2023-02-18T05:09:49;98473.25;;;5.52;58.55
40117;BME280;25829;50.228;18.936;2023-02-18T05:12:50;98469.00;;;5.51;58.29
40117;BME280;25829;50.228;18.936;2023-02-18T05:15:51;98471.63;;;5.51;57.86
40117;BME280;25829;50.228;18.936;2023-02-18T05:18:52;98478.00;;;5.48;57.58
40117;BME280;25829;50.228;18.936;2023-02-18T05:21:56;98473.59;;;5.49;57.45
40117;BME280;25829;50.228;18.936;2023-02-18T05:24:57;98477.34;;;5.46;57.85
40117;BME280;25829;50.228;18.936;2023-02-18T05:27:57;98473.31;;;5.44;56.64
40117;BME280;25829;50.228;18.936;2023-02-18T05:30:58;98477.22;;;5.40;56.09
40117;BME280;25829;50.228;18.936;2023-02-18T05:33:59;98466.63;;;5.41;56.48
40117;BME280;25829;50.228;18.936;2023-02-18T05:37:03;98467.63;;;5.40;55.49
40117;BME280;25829;50.228;18.936;2023-02-18T05:40:05;98469.38;;;5.40;55.75
40117;BME280;25829;50.228;18.936;2023-02-18T05:43:06;98477.53;;;5.45;55.14
40117;BME280;25829;50.228;18.936;2023-02-18T05:46:06;98467.06;;;5.45;54.81
40117;BME280;25829;50.228;18.936;2023-02-18T05:49:07;98475.75;;;5.45;55.14
40117;BME280;25829;50.228;18.936;2023-02-18T05:52:09;98479.34;;;5.44;54.55
40117;BME280;25829;50.228;18.936;2023-02-18T05:55:10;98482.31;;;5.41;54.45
40117;BME280;25829;50.228;18.936;2023-02-18T05:58:12;98464.00;;;5.41;53.50
40117;BME280;25829;50.228;18.936;2023-02-18T06:01:33;98459.56;;;5.42;52.89
40117;BME280;25829;50.228;18.936;2023-02-18T06:04:34;98480.16;;;5.45;54.24
40117;BME280;25829;50.228;18.936;2023-02-18T06:07:35;98472.44;;;5.51;54.33
40117;BME280;25829;50.228;18.936;2023-02-18T06:10:36;98478.59;;;5.58;54.43
40117;BME280;25829;50.228;18.936;2023-02-18T06:13:36;98467.59;;;5.63;53.68
40117;BME280;25829;50.228;18.936;2023-02-18T06:16:37;98472.78;;;5.71;53.14
40117;BME280;25829;50.228;18.936;2023-02-18T06:19:46;98478.94;;;5.78;52.54
40117;BME280;25829;50.228;18.936;2023-02-18T06:23:05;98487.88;;;5.84;51.65
40117;BME280;25829;50.228;18.936;2023-02-18T06:27:10;98492.91;;;5.94;51.65
40117;BME280;25829;50.228;18.936;2023-02-18T06:30:11;98495.81;;;5.99;51.60
40117;BME280;25829;50.228;18.936;2023-02-18T06:33:12;98495.63;;;6.00;51.16
40117;BME280;25829;50.228;18.936;2023-02-18T06:36:13;98496.72;;;6.06;51.61
40117;BME280;25829;50.228;18.936;2023-02-18T06:39:17;98485.72;;;6.11;51.71
40117;BME280;25829;50.228;18.936;2023-02-18T06:42:18;98494.69;;;6.16;51.48
40117;BME280;25829;50.228;18.936;2023-02-18T06:45:22;98486.44;;;6.19;50.80
40117;BME280;25829;50.228;18.936;2023-02-18T06:48:23;98496.75;;;6.21;51.31
40117;BME280;25829;50.228;18.936;2023-02-18T06:51:23;98499.84;;;6.24;51.33
40117;BME280;25829;50.228;18.936;2023-02-18T06:54:24;98489.81;;;6.28;51.34
40117;BME280;25829;50.228;18.936;2023-02-18T06:57:31;98500.75;;;6.31;51.37
40117;BME280;25829;50.228;18.936;2023-02-18T07:00:32;98504.63;;;6.36;50.42
40117;BME280;25829;50.228;18.936;2023-02-18T07:03:33;98506.72;;;6.40;51.15
40117;BME280;25829;50.228;18.936;2023-02-18T07:06:34;98507.00;;;6.45;51.15
40117;BME280;25829;50.228;18.936;2023-02-18T07:09:34;98514.31;;;6.50;51.47
40117;BME280;25829;50.228;18.936;2023-02-18T07:12:35;98504.63;;;6.50;49.94
40117;BME280;25829;50.228;18.936;2023-02-18T07:15:37;98510.72;;;6.51;50.49
40117;BME280;25829;50.228;18.936;2023-02-18T07:18:38;98506.91;;;6.53;50.74
40117;BME280;25829;50.228;18.936;2023-02-18T07:21:42;98514.41;;;6.57;50.07
40117;BME280;25829;50.228;18.936;2023-02-18T07:24:43;98515.66;;;6.61;50.84
40117;BME280;25829;50.228;18.936;2023-02-18T07:27:43;98519.38;;;6.66;49.58
40117;BME280;25829;50.228;18.936;2023-02-18T07:30:47;98510.50;;;6.67;50.20
40117;BME280;25829;50.228;18.936;2023-02-18T07:33:57;98513.78;;;6.69;50.94
40117;BME280;25829;50.228;18.936;2023-02-18T07:37:01;98524.25;;;6.69;50.93
40117;BME280;25829;50.228;18.936;2023-02-18T07:40:02;98529.66;;;6.68;51.13
40117;BME280;25829;50.228;18.936;2023-02-18T07:43:10;98517.22;;;6.70;50.42
40117;BME280;25829;50.228;18.936;2023-02-18T07:46:15;98523.72;;;6.74;51.89
40117;BME280;25829;50.228;18.936;2023-02-18T07:49:16;98521.53;;;6.77;51.75
40117;BME280;25829;50.228;18.936;2023-02-18T07:52:16;98539.91;;;6.77;51.32
40117;BME280;25829;50.228;18.936;2023-02-18T07:55:25;98527.16;;;6.74;49.54
40117;BME280;25829;50.228;18.936;2023-02-18T07:58:46;98528.78;;;6.75;50.84
40117;BME280;25829;50.228;18.936;2023-02-18T08:01:47;98533.69;;;6.78;50.78
40117;BME280;25829;50.228;18.936;2023-02-18T08:04:52;98535.91;;;6.82;50.46
40117;BME280;25829;50.228;18.936;2023-02-18T08:07:56;98542.59;;;6.84;51.28
40117;BME280;25829;50.228;18.936;2023-02-18T08:10:59;98535.38;;;6.86;51.09
40117;BME280;25829;50.228;18.936;2023-02-18T08:14:06;98539.81;;;6.86;51.51
40117;BME280;25829;50.228;18.936;2023-02-18T08:17:07;98538.47;;;6.90;51.97
40117;BME280;25829;50.228;18.936;2023-02-18T08:20:08;98530.22;;;6.93;51.78
40117;BME280;25829;50.228;18.936;2023-02-18T08:23:10;98536.09;;;6.95;51.65
40117;BME280;25829;50.228;18.936;2023-02-18T08:26:18;98526.03;;;6.98;51.12
40117;BME280;25829;50.228;18.936;2023-02-18T08:29:19;98526.69;;;7.00;51.80
40117;BME280;25829;50.228;18.936;2023-02-18T08:32:52;98530.19;;;7.08;50.72
40117;BME280;25829;50.228;18.936;2023-02-18T08:35:59;98529.19;;;7.09;51.93
40117;BME280;25829;50.228;18.936;2023-02-18T08:39:00;98523.22;;;7.15;52.40
40117;BME280;25829;50.228;18.936;2023-02-18T08:42:04;98533.16;;;7.19;52.30
40117;BME280;25829;50.228;18.936;2023-02-18T08:45:18;98534.97;;;7.19;52.40
40117;BME280;25829;50.228;18.936;2023-02-18T08:48:18;98527.31;;;7.17;52.17
40117;BME280;25829;50.228;18.936;2023-02-18T08:51:21;98524.31;;;7.20;52.44
40117;BME280;25829;50.228;18.936;2023-02-18T08:54:22;98523.31;;;7.21;52.62
40117;BME280;25829;50.228;18.936;2023-02-18T08:57:23;98532.63;;;7.24;52.61
40117;BME280;25829;50.228;18.936;2023-02-18T09:00:35;98539.94;;;7.29;52.70
40117;BME280;25829;50.228;18.936;2023-02-18T09:03:37;98533.88;;;7.28;52.50
40117;BME280;25829;50.228;18.936;2023-02-18T09:06:59;98530.31;;;7.36;51.74
40117;BME280;25829;50.228;18.936;2023-02-18T09:10:00;98531.13;;;7.36;51.92
40117;BME280;25829;50.228;18.936;2023-02-18T09:13:01;98528.16;;;7.39;53.11
40117;BME280;25829;50.228;18.936;2023-02-18T09:16:05;98530.19;;;7.44;53.17
40117;BME280;25829;50.228;18.936;2023-02-18T09:19:09;98513.03;;;7.41;52.92
40117;BME280;25829;50.228;18.936;2023-02-18T09:22:10;98533.22;;;7.41;53.33
40117;BME280;25829;50.228;18.936;2023-02-18T09:28:37;98526.16;;;7.41;52.84
40117;BME280;25829;50.228;18.936;2023-02-18T09:31:39;98533.66;;;7.44;53.26
40117;BME280;25829;50.228;18.936;2023-02-18T09:34:50;98529.66;;;7.48;52.82
40117;BME280;25829;50.228;18.936;2023-02-18T09:37:58;98527.28;;;7.54;53.40
40117;BME280;25829;50.228;18.936;2023-02-18T09:41:44;98521.66;;;7.57;53.79
40117;BME280;25829;50.228;18.936;2023-02-18T09:44:51;98507.16;;;7.61;53.26
40117;BME280;25829;50.228;18.936;2023-02-18T09:47:54;98501.53;;;7.64;53.81
40117;BME280;25829;50.228;18.936;2023-02-18T09:50:55;98505.63;;;7.66;52.77
40117;BME280;25829;50.228;18.936;2023-02-18T09:53:56;98500.16;;;7.68;52.30
40117;BME280;25829;50.228;18.936;2023-02-18T09:56:57;98514.13;;;7.68;53.64
40117;BME280;25829;50.228;18.936;2023-02-18T10:00:05;98498.16;;;7.70;53.85
40117;BME280;25829;50.228;18.936;2023-02-18T10:03:18;98495.78;;;7.75;53.92
40117;BME280;25829;50.228;18.936;2023-02-18T10:06:25;98509.31;;;7.72;53.25
40117;BME280;25829;50.228;18.936;2023-02-18T10:09:38;98501.59;;;7.70;53.17
40117;BME280;25829;50.228;18.936;2023-02-18T10:12:41;98500.34;;;7.66;53.19
40117;BME280;25829;50.228;18.936;2023-02-18T10:15:48;98494.47;;;7.64;53.72
40117;BME280;25829;50.228;18.936;2023-02-18T10:18:55;98500.56;;;7.65;53.19
40117;BME280;25829;50.228;18.936;2023-02-18T10:22:01;98498.75;;;7.65;53.53
40117;BME280;25829;50.228;18.936;2023-02-18T10:25:05;98502.78;;;7.68;53.69
40117;BME280;25829;50.228;18.936;2023-02-18T10:28:11;98498.31;;;7.62;53.27
40117;BME280;25829;50.228;18.936;2023-02-18T10:31:24;98514.97;;;7.54;53.79
40117;BME280;25829;50.228;18.936;2023-02-18T10:37:59;98514.50;;;7.29;54.24
40117;BME280;25829;50.228;18.936;2023-02-18T10:52:39;98495.53;;;6.76;58.38
40117;BME280;25829;50.228;18.936;2023-02-18T10:55:46;98490.28;;;6.76;58.77
40117;BME280;25829;50.228;18.936;2023-02-18T10:58:50;98496.22;;;6.85;59.64
40117;BME280;25829;50.228;18.936;2023-02-18T11:02:03;98493.91;;;6.75;60.04
40117;BME280;25829;50.228;18.936;2023-02-18T11:05:24;98491.00;;;6.70;61.85
40117;BME280;25829;50.228;18.936;2023-02-18T11:08:44;98478.81;;;6.62;61.95
40117;BME280;25829;50.228;18.936;2023-02-18T11:11:45;98477.78;;;6.63;62.65
40117;BME280;25829;50.228;18.936;2023-02-18T11:14:48;98469.13;;;6.63;62.43
40117;BME280;25829;50.228;18.936;2023-02-18T11:17:55;98466.94;;;6.66;62.77
40117;BME280;25829;50.228;18.936;2023-02-18T11:21:05;98462.59;;;6.73;63.18
40117;BME280;25829;50.228;18.936;2023-02-18T11:24:09;98458.63;;;6.77;63.11
40117;BME280;25829;50.228;18.936;2023-02-18T11:27:23;98446.94;;;6.80;63.51
40117;BME280;25829;50.228;18.936;2023-02-18T11:30:38;98443.25;;;6.74;63.01
40117;BME280;25829;50.228;18.936;2023-02-18T11:33:55;98433.06;;;6.65;62.81
40117;BME280;25829;50.228;18.936;2023-02-18T11:37:07;98435.59;;;6.58;63.51
40117;BME280;25829;50.228;18.936;2023-02-18T11:40:20;98430.63;;;6.48;64.06
40117;BME280;25829;50.228;18.936;2023-02-18T11:43:27;98415.19;;;6.39;64.50
40117;BME280;25829;50.228;18.936;2023-02-18T11:46:32;98413.19;;;6.41;64.75
40117;BME280;25829;50.228;18.936;2023-02-18T11:49:34;98399.75;;;6.44;65.41
40117;BME280;25829;50.228;18.936;2023-02-18T11:52:48;98407.69;;;6.36;65.48
40117;BME280;25829;50.228;18.936;2023-02-18T11:55:58;98399.38;;;6.32;65.68
40117;BME280;25829;50.228;18.936;2023-02-18T11:59:01;98390.50;;;6.33;66.05
40117;BME280;25829;50.228;18.936;2023-02-18T12:02:33;98381.31;;;6.37;66.40
40117;BME280;25829;50.228;18.936;2023-02-18T12:05:35;98378.03;;;6.35;66.94
40117;BME280;25829;50.228;18.936;2023-02-18T12:08:50;98355.47;;;6.34;66.97
40117;BME280;25829;50.228;18.936;2023-02-18T12:12:00;98363.13;;;6.36;67.76
40117;BME280;25829;50.228;18.936;2023-02-18T12:15:03;98369.63;;;6.40;67.53
40117;BME280;25829;50.228;18.936;2023-02-18T12:18:12;98350.13;;;6.42;68.20
40117;BME280;25829;50.228;18.936;2023-02-18T12:25:50;98328.88;;;6.52;68.51
40117;BME280;25829;50.228;18.936;2023-02-18T12:31:59;98323.19;;;6.48;69.35
40117;BME280;25829;50.228;18.936;2023-02-18T12:42:07;98281.25;;;6.48;69.26
40117;BME280;25829;50.228;18.936;2023-02-18T12:58:40;98221.09;;;6.62;69.48
40117;BME280;25829;50.228;18.936;2023-02-18T13:12:06;98203.13;;;6.59;69.82
40117;BME280;25829;50.228;18.936;2023-02-18T13:15:14;98186.78;;;6.57;70.05
40117;BME280;25829;50.228;18.936;2023-02-18T13:18:59;98181.72;;;6.55;69.48
40117;BME280;25829;50.228;18.936;2023-02-18T13:22:04;98183.72;;;6.53;70.49
40117;BME280;25829;50.228;18.936;2023-02-18T13:25:11;98177.25;;;6.49;70.04
40117;BME280;25829;50.228;18.936;2023-02-18T13:28:25;98163.91;;;6.44;69.90
40117;BME280;25829;50.228;18.936;2023-02-18T13:32:00;98135.09;;;6.44;70.05
40117;BME280;25829;50.228;18.936;2023-02-18T13:41:37;98132.63;;;6.42;70.44
40117;BME280;25829;50.228;18.936;2023-02-18T13:47:48;98130.19;;;5.98;71.83
40117;BME280;25829;50.228;18.936;2023-02-18T13:50:51;98135.63;;;5.96;72.21
40117;BME280;25829;50.228;18.936;2023-02-18T13:54:03;98103.94;;;5.91;72.42
40117;BME280;25829;50.228;18.936;2023-02-18T13:57:24;98098.66;;;5.70;73.02
40117;BME280;25829;50.228;18.936;2023-02-18T14:04:57;98090.44;;;5.73;73.91
40117;BME280;25829;50.228;18.936;2023-02-18T14:28:02;98035.91;;;5.55;74.57
40117;BME280;25829;50.228;18.936;2023-02-18T14:31:04;98026.97;;;5.64;75.06
40117;BME280;25829;50.228;18.936;2023-02-18T14:37:32;97999.91;;;5.78;74.30
40117;BME280;25829;50.228;18.936;2023-02-18T14:47:28;97963.97;;;5.44;75.83
40117;BME280;25829;50.228;18.936;2023-02-18T14:50:36;97958.28;;;5.41;75.71
40117;BME280;25829;50.228;18.936;2023-02-18T14:53:43;97944.66;;;5.45;75.87
40117;BME280;25829;50.228;18.936;2023-02-18T14:56:57;97941.72;;;5.55;75.71
40117;BME280;25829;50.228;18.936;2023-02-18T14:59:59;97922.03;;;5.59;75.65
40117;BME280;25829;50.228;18.936;2023-02-18T15:03:00;97918.41;;;5.60;76.18
40117;BME280;25829;50.228;18.936;2023-02-18T15:06:38;97910.81;;;5.65;76.10
40117;BME280;25829;50.228;18.936;2023-02-18T15:10:03;97900.41;;;5.72;75.80
40117;BME280;25829;50.228;18.936;2023-02-18T15:13:12;97895.00;;;5.80;75.92
40117;BME280;25829;50.228;18.936;2023-02-18T15:16:29;97894.72;;;5.90;75.79
40117;BME280;25829;50.228;18.936;2023-02-18T15:19:40;97885.28;;;5.95;75.95
40117;BME280;25829;50.228;18.936;2023-02-18T15:22:43;97879.09;;;6.03;75.93
40117;BME280;25829;50.228;18.936;2023-02-18T15:25:53;97861.78;;;6.08;76.65
40117;BME280;25829;50.228;18.936;2023-02-18T15:31:59;97857.63;;;6.21;77.37
40117;BME280;25829;50.228;18.936;2023-02-18T15:35:02;97839.31;;;6.27;78.02
40117;BME280;25829;50.228;18.936;2023-02-18T15:38:16;97828.66;;;6.36;78.75
40117;BME280;25829;50.228;18.936;2023-02-18T15:41:19;97828.69;;;6.42;79.40
40117;BME280;25829;50.228;18.936;2023-02-18T15:44:26;97830.31;;;6.50;79.79
40117;BME280;25829;50.228;18.936;2023-02-18T15:59:56;97803.41;;;6.89;81.67
40117;BME280;25829;50.228;18.936;2023-02-18T16:03:27;97801.22;;;6.99;81.48
40117;BME280;25829;50.228;18.936;2023-02-18T16:06:37;97795.13;;;7.06;82.05
40117;BME280;25829;50.228;18.936;2023-02-18T16:09:38;97793.94;;;7.15;82.12
40117;BME280;25829;50.228;18.936;2023-02-18T16:12:39;97797.19;;;7.23;82.55
40117;BME280;25829;50.228;18.936;2023-02-18T16:15:42;97802.22;;;7.32;82.79
40117;BME280;25829;50.228;18.936;2023-02-18T16:18:43;97798.78;;;7.38;82.54
40117;BME280;25829;50.228;18.936;2023-02-18T16:21:44;97794.34;;;7.45;82.57
40117;BME280;25829;50.228;18.936;2023-02-18T16:24:49;97801.19;;;7.53;82.20
40117;BME280;25829;50.228;18.936;2023-02-18T16:30:58;97803.81;;;7.59;82.31
40117;BME280;25829;50.228;18.936;2023-02-18T16:33:59;97798.97;;;7.63;82.15
40117;BME280;25829;50.228;18.936;2023-02-18T16:37:02;97803.81;;;7.66;81.96
40117;BME280;25829;50.228;18.936;2023-02-18T16:43:31;97811.31;;;7.76;81.76
40117;BME280;25829;50.228;18.936;2023-02-18T16:46:32;97811.06;;;7.77;81.80
40117;BME280;25829;50.228;18.936;2023-02-18T16:49:34;97829.25;;;7.79;81.90
40117;BME280;25829;50.228;18.936;2023-02-18T16:52:35;97830.06;;;7.79;82.05
40117;BME280;25829;50.228;18.936;2023-02-18T16:55:36;97826.63;;;7.79;81.82
40117;BME280;25829;50.228;18.936;2023-02-18T16:58:37;97833.28;;;7.81;81.54
40117;BME280;25829;50.228;18.936;2023-02-18T17:01:41;97832.47;;;7.81;81.78
40117;BME280;25829;50.228;18.936;2023-02-18T17:04:43;97835.09;;;7.81;82.08
40117;BME280;25829;50.228;18.936;2023-02-18T17:07:44;97836.72;;;7.82;82.16
40117;BME280;25829;50.228;18.936;2023-02-18T17:10:46;97840.56;;;7.86;81.62
40117;BME280;25829;50.228;18.936;2023-02-18T17:13:48;97833.91;;;7.83;81.62
40117;BME280;25829;50.228;18.936;2023-02-18T17:16:52;97848.06;;;7.82;81.72
40117;BME280;25829;50.228;18.936;2023-02-18T17:19:53;97845.63;;;7.81;81.59
40117;BME280;25829;50.228;18.936;2023-02-18T17:22:54;97859.38;;;7.76;81.85
40117;BME280;25829;50.228;18.936;2023-02-18T17:25:58;97854.91;;;7.77;81.91
40117;BME280;25829;50.228;18.936;2023-02-18T17:28:59;97854.28;;;7.74;81.43
40117;BME280;25829;50.228;18.936;2023-02-18T17:32:00;97853.69;;;7.72;81.36
40117;BME280;25829;50.228;18.936;2023-02-18T17:35:00;97852.66;;;7.67;81.16
40117;BME280;25829;50.228;18.936;2023-02-18T17:38:08;97867.84;;;7.65;80.60
40117;BME280;25829;50.228;18.936;2023-02-18T17:44:39;97874.47;;;7.67;79.75
40117;BME280;25829;50.228;18.936;2023-02-18T17:47:40;97871.25;;;7.65;79.55
40117;BME280;25829;50.228;18.936;2023-02-18T17:50:40;97881.34;;;7.62;79.87
40117;BME280;25829;50.228;18.936;2023-02-18T17:53:42;97877.31;;;7.59;79.51
40117;BME280;25829;50.228;18.936;2023-02-18T17:56:43;97883.38;;;7.60;79.55
40117;BME280;25829;50.228;18.936;2023-02-18T17:59:47;97890.84;;;7.56;79.00
40117;BME280;25829;50.228;18.936;2023-02-18T18:02:48;97897.28;;;7.54;78.67
40117;BME280;25829;50.228;18.936;2023-02-18T18:09:17;97891.25;;;7.53;78.15
40117;BME280;25829;50.228;18.936;2023-02-18T18:12:36;97901.72;;;7.53;78.05
40117;BME280;25829;50.228;18.936;2023-02-18T18:16:10;97909.44;;;7.55;77.94
40117;BME280;25829;50.228;18.936;2023-02-18T18:19:13;97916.69;;;7.53;77.76
40117;BME280;25829;50.228;18.936;2023-02-18T18:22:14;97919.94;;;7.55;77.56
40117;BME280;25829;50.228;18.936;2023-02-18T18:25:36;97918.91;;;7.56;77.31
40117;BME280;25829;50.228;18.936;2023-02-18T18:28:38;97915.66;;;7.54;77.23
40117;BME280;25829;50.228;18.936;2023-02-18T18:31:57;97911.03;;;7.56;76.39
40117;BME280;25829;50.228;18.936;2023-02-18T18:34:58;97924.16;;;7.56;75.96
40117;BME280;25829;50.228;18.936;2023-02-18T18:37:59;97915.88;;;7.59;75.73
40117;BME280;25829;50.228;18.936;2023-02-18T18:41:00;97924.56;;;7.59;75.45
40117;BME280;25829;50.228;18.936;2023-02-18T18:44:04;97934.03;;;7.60;74.86
40117;BME280;25829;50.228;18.936;2023-02-18T18:47:05;97931.22;;;7.62;74.87
40117;BME280;25829;50.228;18.936;2023-02-18T18:50:06;97937.06;;;7.64;74.71
40117;BME280;25829;50.228;18.936;2023-02-18T18:53:18;97935.25;;;7.64;74.68
40117;BME280;25829;50.228;18.936;2023-02-18T18:56:19;97946.38;;;7.60;74.30
40117;BME280;25829;50.228;18.936;2023-02-18T18:59:21;97952.25;;;7.62;74.02
40117;BME280;25829;50.228;18.936;2023-02-18T19:02:22;97950.41;;;7.62;74.08
40117;BME280;25829;50.228;18.936;2023-02-18T19:16:43;97961.09;;;7.61;72.98
40117;BME280;25829;50.228;18.936;2023-02-18T19:19:44;97956.47;;;7.63;72.72
40117;BME280;25829;50.228;18.936;2023-02-18T19:22:45;97963.53;;;7.62;73.30
40117;BME280;25829;50.228;18.936;2023-02-18T19:25:46;97966.16;;;7.62;72.89